Latest Weather Observations for Moree

IDN60801

Issued at 9:32 pm EDT Saturday 16 December 2017 (issued every 30 minutes, with the page automatically refreshed every 10 minutes)

About weather observations | Map of weather stations | Latest weather observations for NSW | Other Formats
Station Details ID: 053115 Name: MOREE AERO Lat: -29.49 Lon: 149.85 Height: 213.0 m
Data from the previous 72 hours. | See also: Recent months at Moree
Date/Time
EDT
Temp
°C
App
Temp
°C
Dew
Point
°C
Rel
Hum
%
Delta-T
°C
Wind Press
QNH
hPa
Press
MSL
hPa
Rain since
9am
mm
Dir  Spd
km/h
Gust
km/h
Spd
kts
Gust
kts
16/09:30pm 30.7 29.3 12.1 32 11.0 NE 11 13 6 7 1011.6 1010.4 0.0
16/09:00pm 30.9 29.5 12.3 32 11.1 ENE 11 11 6 6 1011.5 1010.3 0.0
16/08:30pm 32.2 30.7 11.9 29 12.0 NE 11 13 6 7 1011.2 1010.0 0.0
16/08:00pm 33.5 32.6 11.4 26 13.1 N 7 7 4 4 1010.8 1009.6 0.0
16/07:30pm 34.9 33.2 11.3 24 14.0 N 11 17 6 9 1010.3 1009.1 0.0
16/07:00pm 36.3 35.0 11.2 22 15.0 N 9 15 5 8 1010.1 1008.9 0.0
16/06:30pm 37.1 36.3 11.8 22 15.3 NNW 7 13 4 7 1010.1 1008.9 0.0
16/06:00pm 36.5 34.4 11.3 22 15.1 NNW 13 22 7 12 1010.0 1008.8 0.0
16/05:30pm 37.6 35.1 12.3 22 15.4 N 17 26 9 14 1010.2 1009.0 0.0
16/05:00pm 37.3 36.9 14.0 25 14.5 N 9 19 5 10 1010.4 1009.2 0.0
16/04:30pm 36.5 35.0 12.0 23 14.8 NNW 11 19 6 10 1010.8 1009.6 0.0
16/04:00pm 36.3 34.6 12.5 24 14.5 NE 13 24 7 13 1011.3 1010.1 0.0
16/03:30pm 36.3 33.7 11.9 23 14.7 N 17 28 9 15 1011.9 1010.6 0.0
16/03:00pm 36.9 35.2 12.4 23 14.9 NNW 13 24 7 13 1012.2 1010.9 0.0
16/02:30pm 35.6 32.8 12.5 24 14.0 N 19 28 10 15 1012.8 1011.6 0.0
16/02:00pm 35.8 33.0 12.7 25 14.1 N 19 32 10 17 1013.2 1012.0 0.0
16/01:30pm 35.3 32.6 12.9 26 13.7 N 19 30 10 16 1013.7 1012.5 0.0
16/01:00pm 33.8 31.3 12.2 27 13.0 N 17 30 9 16 1014.3 1013.1 0.0
16/12:30pm 33.9 31.0 12.8 28 12.8 N 20 32 11 17 1014.6 1013.4 0.0
16/12:00pm 33.8 30.6 14.3 31 12.1 NNE 24 33 13 18 1015.1 1013.9 0.0
16/11:30am 31.8 27.5 14.4 34 10.7 NNE 30 41 16 22 1015.6 1014.4 0.0
16/11:00am 31.0 27.5 15.4 38 9.7 N 28 39 15 21 1015.6 1014.4 0.0
16/10:35am 29.8 26.1 15.1 40 9.1 NNE 28 46 15 25 1015.7 1014.5 0.0
16/10:30am 29.9 25.7 15.6 42 8.9 NNE 32 46 17 25 1015.6 1014.4 0.0
16/10:00am 29.6 26.2 15.7 43 8.6 NNE 28 41 15 22 1015.8 1014.6 0.0
16/09:30am 28.3 24.0 15.9 47 7.7 NNE 33 41 18 22 1015.8 1014.6 0.0
16/09:00am 27.4 22.3 15.7 48 7.2 NNE 37 50 20 27 1015.5 1014.3 0.0
16/08:30am 26.7 21.7 16.0 52 6.6 NNE 37 44 20 24 1015.5 1014.3 0.0
16/08:00am 25.6 20.6 16.2 56 5.8 NNE 37 48 20 26 1015.5 1014.3 0.0
16/07:30am 25.0 21.0 16.2 58 5.4 NE 32 41 17 22 1015.2 1014.0 0.0
16/07:00am 24.2 20.4 15.7 59 5.2 NE 30 39 16 21 1014.9 1013.7 0.0
16/06:30am 23.9 20.0 15.4 59 5.2 NE 30 37 16 20 1014.4 1013.2 0.0
16/06:00am 24.1 20.6 15.6 59 5.2 NE 28 35 15 19 1013.8 1012.6 0.0
16/05:30am 24.6 21.1 15.5 57 5.5 NE 28 33 15 18 1013.3 1012.1 0.0
16/05:00am 25.2 22.6 15.8 56 5.8 NE 24 32 13 17 1013.0 1011.8 0.0
16/04:30am 25.6 23.3 15.6 54 6.1 NE 22 32 12 17 1012.8 1011.6 0.0
16/04:00am 26.3 23.5 15.4 51 6.7 NNE 24 35 13 19 1012.2 1010.9 0.0
16/03:30am 26.6 23.2 14.7 48 7.2 NE 26 33 14 18 1011.5 1010.3 0.0
16/03:00am 27.1 23.1 14.1 44 7.8 NE 28 39 15 21 1011.3 1010.1 0.0
16/02:30am 27.8 23.7 13.7 42 8.5 NE 28 33 15 18 1011.3 1010.1 0.0
16/02:00am 28.2 23.9 13.3 40 8.9 NE 28 37 15 20 1011.2 1010.0 0.0
16/01:30am 28.7 23.4 12.6 37 9.5 NE 32 39 17 21 1011.1 1009.9 0.0
16/01:00am 29.4 23.7 11.9 34 10.3 NE 33 44 18 24 1011.0 1009.8 0.0
16/12:30am 29.8 25.2 10.9 31 10.9 NE 26 35 14 19 1010.9 1009.7 0.0
16/12:19am 29.5 24.3 10.1 30 11.1 NE 28 35 15 19 1010.9 1009.7 0.0
16/12:00am 29.7 27.4 10.3 30 11.1 N 13 17 7 9 1010.3 1009.1 0.0
 
Date/Time
EDT
Temp
°C
App
Temp
°C
Dew
Point
°C
Rel
Hum
%
Delta-T
°C
Wind Press
QNH
hPa
Press
MSL
hPa
Rain since
9am
mm
Dir  Spd
km/h
Gust
km/h
Spd
kts
Gust
kts
15/11:30pm 29.6 27.4 10.7 31 10.9 N 13 15 7 8 1010.3 1009.1 0.0
15/11:00pm 28.5 27.9 12.4 37 9.5 N 7 9 4 5 1010.4 1009.2 0.0
15/10:30pm 27.9 27.4 13.8 42 8.5 N 9 13 5 7 1010.2 1009.0 0.0
15/10:00pm 29.0 29.8 12.4 36 9.8 CALM 0 0 0 0 1010.1 1008.9 0.0
15/09:30pm 30.2 30.5 12.1 32 10.7 N 2 6 1 3 1009.9 1008.7 0.0
15/09:00pm 30.0 28.9 12.0 33 10.6 N 9 9 5 5 1009.7 1008.5 0.0
15/08:30pm 31.0 30.4 12.4 32 11.1 N 7 9 4 5 1009.5 1008.3 0.0
15/08:00pm 32.4 31.8 11.6 28 12.3 N 6 7 3 4 1009.3 1008.1 0.0
15/07:30pm 34.5 33.1 9.7 22 14.4 NNE 7 9 4 5 1009.0 1007.8 0.0
15/07:00pm 35.5 33.2 9.1 20 15.3 NE 11 13 6 7 1008.7 1007.5 0.0
15/06:30pm 36.4 33.9 8.3 18 16.1 N 11 17 6 9 1008.4 1007.2 0.0
15/06:00pm 37.3 34.6 9.0 18 16.5 NNE 13 19 7 10 1008.2 1007.0 0.0
15/05:30pm 36.7 33.9 8.5 18 16.2 NE 13 20 7 11 1008.0 1006.7 0.0
15/05:00pm 36.9 34.9 8.7 18 16.3 N 9 13 5 7 1008.1 1006.8 0.0
15/04:30pm 37.1 34.2 9.6 19 16.1 NNE 15 22 8 12 1008.1 1006.8 0.0
15/04:00pm 38.0 36.1 10.4 19 16.4 SSE 11 17 6 9 1008.4 1007.2 0.0
15/03:30pm 37.1 34.2 9.6 19 16.1 N 15 19 8 10 1008.8 1007.6 0.0
15/03:00pm 36.8 34.2 9.4 19 16.0 NW 13 17 7 9 1009.1 1007.9 0.0
15/02:30pm 36.0 33.6 10.2 21 15.2 WNW 13 20 7 11 1009.7 1008.5 0.0
15/02:00pm 36.2 33.7 11.1 22 15.0 NNE 15 26 8 14 1010.2 1009.0 0.0
15/01:30pm 35.4 33.7 9.7 21 15.0 NNE 9 17 5 9 1010.7 1009.5 0.0
15/01:00pm 35.3 32.0 11.0 23 14.4 N 19 28 10 15 1011.1 1009.9 0.0
15/12:30pm 34.8 32.9 11.9 25 13.7 NNE 13 22 7 12 1011.5 1010.3 0.0
15/12:00pm 33.9 31.5 12.8 28 12.8 N 17 26 9 14 1012.0 1010.7 0.0
15/11:30am 32.3 29.3 12.5 30 11.9 NNE 20 30 11 16 1012.4 1011.2 0.0
15/11:00am 31.3 27.8 14.4 35 10.4 NNE 26 35 14 19 1012.7 1011.5 0.0
15/10:30am 30.5 28.2 14.2 37 10.0 NNE 19 35 10 19 1013.0 1011.8 0.0
15/10:00am 29.3 26.5 14.3 40 9.1 NNE 22 33 12 18 1013.1 1011.9 0.0
15/09:30am 28.7 25.7 14.9 43 8.5 NNE 24 33 13 18 1013.3 1012.1 0.0
15/09:00am 27.3 23.5 14.7 46 7.7 NNE 28 37 15 20 1013.1 1011.9 0.0
15/08:30am 27.1 23.4 15.1 47 7.3 NNE 28 35 15 19 1012.9 1011.7 0.0
15/08:00am 25.7 21.1 14.5 50 6.7 NE 32 37 17 20 1012.6 1011.4 0.0
15/07:30am 24.9 20.2 14.4 52 6.3 NE 32 39 17 21 1012.5 1011.3 0.0
15/07:00am 24.3 20.8 14.4 54 5.9 NE 26 32 14 17 1012.2 1010.9 0.0
15/06:30am 23.8 20.9 13.9 54 5.9 NE 22 28 12 15 1011.9 1010.6 0.0
15/06:00am 23.7 21.3 13.8 53 5.8 NE 19 26 10 14 1011.2 1010.0 0.0
15/05:30am 23.8 21.3 13.6 52 6.0 NE 19 24 10 13 1010.8 1009.6 0.0
15/05:00am 24.3 22.2 13.5 51 6.4 NE 17 24 9 13 1010.3 1009.1 0.0
15/04:30am 25.1 21.2 13.3 48 6.9 NNE 26 33 14 18 1009.6 1008.4 0.0
15/04:00am 25.5 22.0 13.4 47 7.2 NNE 24 33 13 18 1009.4 1008.2 0.0
15/03:30am 26.0 21.7 13.2 45 7.6 NNE 28 41 15 22 1009.1 1007.9 0.0
15/03:00am 26.2 22.1 12.6 43 8.0 NNE 26 32 14 17 1009.2 1008.0 0.0
15/02:30am 26.3 22.4 12.0 41 8.3 NE 24 30 13 16 1009.4 1008.2 0.0
15/02:00am 26.9 22.6 10.6 36 9.3 NNE 24 30 13 16 1009.3 1008.1 0.0
15/01:30am 27.4 22.7 9.3 32 10.1 NE 24 28 13 15 1009.6 1008.4 0.0
15/01:00am 27.8 22.2 8.6 30 10.6 NE 28 37 15 20 1009.8 1008.6 0.0
15/12:57am 27.6 21.9 8.5 30 10.5 NE 28 37 15 20 1009.8 1008.6 0.0
15/12:30am 28.1 25.9 7.9 28 11.0 N 9 11 5 6 1009.5 1008.3 0.0
15/12:00am 28.9 26.0 8.0 27 11.5 NNW 13 13 7 7 1009.6 1008.4 0.0
 
Date/Time
EDT
Temp
°C
App
Temp
°C
Dew
Point
°C
Rel
Hum
%
Delta-T
°C
Wind Press
QNH
hPa
Press
MSL
hPa
Rain since
9am
mm
Dir  Spd
km/h
Gust
km/h
Spd
kts
Gust
kts
14/11:30pm 28.8 25.8 7.9 27 11.5 N 13 15 7 8 1009.7 1008.5 0.0
14/11:00pm 29.4 26.6 8.5 27 11.6 N 13 15 7 8 1009.7 1008.5 0.0
14/10:30pm 28.8 26.1 9.0 29 11.0 N 13 17 7 9 1009.7 1008.5 0.0
14/10:00pm 28.0 27.1 10.7 34 9.9 NNE 6 7 3 4 1009.5 1008.3 0.0
14/09:30pm 29.3 28.6 9.9 30 11.0 NE 4 9 2 5 1009.4 1008.2 0.0
14/09:00pm 30.0 29.8 9.0 27 11.8 CALM 0 2 0 1 1009.3 1008.1 0.0
14/08:30pm 30.7 29.5 9.6 27 12.0 NE 6 6 3 3 1009.0 1007.8 0.0
14/08:00pm 32.4 30.6 8.0 22 13.7 NE 7 9 4 5 1008.7 1007.5 0.0
14/07:30pm 34.7 32.5 6.1 17 15.7 E 7 11 4 6 1008.3 1007.1 0.0
14/07:00pm 35.7 33.3 6.9 17 16.1 E 9 15 5 8 1008.0 1006.7 0.0
14/06:30pm 36.3 34.0 7.4 17 16.3 NNE 9 13 5 7 1007.9 1006.6 0.0
14/06:00pm 36.3 34.4 6.5 16 16.6 SE 6 11 3 6 1007.8 1006.5 0.0
14/05:30pm 36.7 34.6 6.8 16 16.7 ENE 7 15 4 8 1007.9 1006.6 0.0
14/05:00pm 36.5 33.5 7.5 17 16.4 ESE 13 20 7 11 1008.0 1006.7 0.0
14/04:30pm 36.3 33.4 6.5 16 16.6 N 11 22 6 12 1008.3 1007.1 0.0
14/04:00pm 36.9 33.9 7.8 17 16.6 NNE 13 26 7 14 1008.5 1007.3 0.0
14/03:30pm 36.5 34.6 9.2 19 15.8 WNW 9 15 5 8 1008.7 1007.5 0.0
14/03:00pm 36.4 34.3 8.3 18 16.1 ENE 9 13 5 7 1009.0 1007.8 0.0
14/02:30pm 35.9 33.3 9.4 20 15.4 NNW 13 24 7 13 1009.4 1008.2 0.0
14/02:00pm 34.7 32.6 9.9 22 14.4 NNW 11 19 6 10 1009.9 1008.7 0.0
14/01:30pm 34.5 33.3 11.6 25 13.7 E 9 15 5 8 1010.4 1009.2 0.0
14/01:00pm 33.7 30.9 11.5 26 13.2 N 17 22 9 12 1011.0 1009.8 0.0
14/12:30pm 32.7 30.8 11.8 28 12.4 NNW 13 24 7 13 1011.7 1010.5 0.0
14/12:00pm 32.4 30.5 13.1 31 11.7 NNE 15 24 8 13 1012.2 1010.9 0.0
14/11:30am 31.0 28.1 12.4 32 11.1 N 19 28 10 15 1012.6 1011.4 0.0
14/11:00am 30.6 28.8 15.5 40 9.4 N 19 30 10 16 1012.8 1011.6 0.0
14/10:30am 29.4 27.3 15.1 41 8.8 N 20 30 11 16 1013.0 1011.8 0.0
14/10:00am 28.0 25.1 15.0 45 8.0 NNE 24 35 13 19 1013.5 1012.3 0.0
14/09:30am 26.9 24.1 15.3 49 7.1 N 24 35 13 19 1013.5 1012.3 0.0
14/09:00am 25.8 22.6 15.2 52 6.5 NNE 26 35 14 19 1013.6 1012.4 0.0
14/08:30am 25.0 20.8 15.6 56 5.7 NNE 32 39 17 21 1013.7 1012.5 0.0
14/08:00am 24.1 19.6 15.3 58 5.3 NNE 33 41 18 22 1013.4 1012.2 0.0
14/07:30am 23.6 19.3 15.4 60 5.0 NNE 32 39 17 21 1013.6 1012.4 0.0
14/07:00am 22.7 19.4 15.0 61 4.6 NNE 26 32 14 17 1013.5 1012.3 0.0
14/06:30am 22.1 18.9 15.2 65 4.1 NE 26 33 14 18 1013.2 1012.0 0.0
14/06:00am 22.1 19.0 15.5 66 4.0 NE 26 33 14 18 1013.1 1011.9 0.0
14/05:30am 22.4 19.7 15.7 66 4.1 NE 24 32 13 17 1013.0 1011.8 0.0
14/05:00am 22.9 19.5 15.7 64 4.4 NE 28 37 15 20 1012.8 1011.6 0.0
14/04:30am 23.2 20.6 15.8 63 4.5 NE 24 30 13 16 1012.6 1011.4 0.0
14/04:00am 23.9 20.5 15.7 60 5.0 NNE 28 35 15 19 1012.5 1011.3 0.0
14/03:30am 24.5 20.8 14.9 55 5.8 NE 28 33 15 18 1012.3 1011.1 0.0
14/03:00am 25.1 21.3 13.6 49 6.8 NE 26 35 14 19 1012.0 1010.7 0.0
14/02:30am 25.8 22.1 12.6 44 7.7 NNE 24 32 13 17 1011.9 1010.6 0.0
14/02:00am 26.3 22.9 11.2 38 8.6 NNE 20 28 11 15 1011.9 1010.6 0.0
14/01:30am 27.1 22.6 9.9 34 9.7 NNE 24 32 13 17 1012.2 1010.9 0.0
14/01:00am 27.8 22.8 9.6 32 10.2 NNE 26 33 14 18 1012.2 1010.9 0.0
14/12:30am 27.9 23.7 8.2 29 10.8 NE 20 30 11 16 1012.2 1010.9 0.0
14/12:00am 26.3 22.1 8.3 32 9.8 NE 20 39 11 21 1012.2 1010.9 0.0
 
Date/Time
EDT
Temp
°C
App
Temp
°C
Dew
Point
°C
Rel
Hum
%
Delta-T
°C
Wind Press
QNH
hPa
Press
MSL
hPa
Rain since
9am
mm
Dir  Spd
km/h
Gust
km/h
Spd
kts
Gust
kts
13/11:58pm 25.5 21.8 8.1 33 9.4 NNE 17 39 9 21 1012.1 1010.8 0.0
13/11:30pm 26.9 23.9 7.9 30 10.3 N 13 17 7 9 1011.7 1010.5 0.0
13/11:00pm 26.7 23.8 8.2 31 10.1 N 13 19 7 10 1011.9 1010.6 0.0
13/10:30pm 26.4 24.1 7.4 30 10.2 NW 9 9 5 5 1011.7 1010.5 0.0
13/10:00pm 26.6 24.5 8.1 31 10.1 WNW 9 11 5 6 1011.5 1010.3 0.0

Other Formats:

Comma delimited format used in spreadsheet applications
http://www.bom.gov.au/fwo/IDN60801/IDN60801.95527.axf

JavaScript Object Notation format (JSON) in row-major order
http://www.bom.gov.au/fwo/IDN60801/IDN60801.95527.json